»·PEaware :: N415CS KSJC-KMRY

N415CS :: KSJC-KMRY

FLIGHT INFORMATION

Flight Status: Arrived
Operator: Privately registered:
United States
More flights under this callsign
Pilot: Kyle A. (14988)
Aircraft: CESSNA 182 SKYLANE
(C182)
More flights by this aircraft type
Origin: KSJC Mineta San Jose Intl
United States
Destination: KMRY Monterey Peninsula
United States
More flights between these airports :: More routes between these airports
Route: SNS
File this flight plan on PilotEdge
Remarks:
Altitude:
(Current/Filed)
5,000ft
Speed:
(Current/Filed)
140kts
Departed: 13-Mar-18 09:37 AM
Arrived: 13-Mar-18 10:26 AM
Distance/Time
Traveled:
47nm/0:49
Distance/Time
To Go:
Arrived

Flight Plot

Page will automatically refresh every two minutes.

Flight plan parsing failed; only flown route is shown


Map Options




Map Legend


Flown Route
Filed Route
Departure Airport
Arrival Airport
Navaid (VOR, NDB)
Fix

Horizontal Profiles

Position Reports

Time Latitude Longitude Heading Altitude Ground
Speed
13-Mar-18 09:22 37.353449 -121.923237 43 65ft 0kts
13-Mar-18 09:23 37.353451 -121.923234 43 65ft 0kts
13-Mar-18 09:24 37.353453 -121.923231 43 65ft 0kts
13-Mar-18 09:25 37.353456 -121.923228 43 65ft 0kts
13-Mar-18 09:26 37.353458 -121.923226 43 65ft 0kts
13-Mar-18 09:27 37.353460 -121.923223 43 65ft 0kts
13-Mar-18 09:28 37.353765 -121.922937 23 65ft 8kts
13-Mar-18 09:29 37.356581 -121.925513 322 65ft 22kts
13-Mar-18 09:30 37.361317 -121.930627 319 65ft 16kts
13-Mar-18 09:31 37.364383 -121.933796 318 65ft 22kts
13-Mar-18 09:32 37.369500 -121.939530 323 65ft 26kts
13-Mar-18 09:33 37.372249 -121.941767 40 65ft 0kts
13-Mar-18 09:34 37.372251 -121.941765 40 65ft 0kts
13-Mar-18 09:35 37.372252 -121.941764 40 65ft 0kts
13-Mar-18 09:36 37.364376 -121.931934 140 327ft 94kts
13-Mar-18 09:37 37.342075 -121.915335 152 1352ft 91kts
13-Mar-18 09:38 37.321423 -121.901227 153 2339ft 78kts
13-Mar-18 09:39 37.302328 -121.887449 161 3222ft 82kts
13-Mar-18 09:40 37.281820 -121.873164 160 4041ft 85kts
13-Mar-18 09:41 37.260813 -121.865630 188 4821ft 75kts
13-Mar-18 09:42 37.235674 -121.855016 166 4996ft 110kts
13-Mar-18 09:43 37.205736 -121.841607 166 5004ft 117kts
13-Mar-18 09:44 37.174665 -121.827800 166 5004ft 119kts
13-Mar-18 09:45 37.143195 -121.813897 166 5012ft 120kts
13-Mar-18 09:46 37.111830 -121.800030 166 5022ft 119kts
13-Mar-18 09:47 37.079223 -121.785626 166 5004ft 125kts
13-Mar-18 09:48 37.046391 -121.771109 165 5012ft 125kts
13-Mar-18 09:49 37.013502 -121.756612 165 5015ft 125kts
13-Mar-18 09:50 36.985420 -121.732964 122 5121ft 134kts
13-Mar-18 09:51 36.971741 -121.698040 127 5101ft 133kts
13-Mar-18 09:52 36.948823 -121.652606 130 5093ft 130kts
13-Mar-18 09:53 36.929660 -121.615003 131 5090ft 126kts
13-Mar-18 09:54 36.910620 -121.578081 130 5095ft 126kts
13-Mar-18 09:55 36.894663 -121.547323 131 5099ft 126kts
13-Mar-18 09:56 36.875571 -121.510500 131 5098ft 126kts
13-Mar-18 09:57 36.853301 -121.467585 131 5096ft 126kts
13-Mar-18 09:58 36.837088 -121.436488 131 5101ft 130kts
13-Mar-18 09:59 36.816932 -121.398417 131 5101ft 132kts
13-Mar-18 10:00 36.789683 -121.377568 183 5103ft 120kts
13-Mar-18 10:01 36.756209 -121.379184 194 5094ft 120kts
13-Mar-18 10:02 36.744428 -121.417936 253 5100ft 129kts
13-Mar-18 10:03 36.738578 -121.452222 253 5109ft 136kts
13-Mar-18 10:04 36.732143 -121.496977 252 5090ft 127kts
13-Mar-18 10:05 36.726309 -121.540006 253 5098ft 126kts
13-Mar-18 10:06 36.720436 -121.583546 253 5100ft 126kts
13-Mar-18 10:07 36.714464 -121.626805 243 5092ft 124kts
13-Mar-18 10:08 36.685880 -121.623124 161 5109ft 122kts
13-Mar-18 10:09 36.654214 -121.606818 162 5096ft 127kts
13-Mar-18 10:10 36.621020 -121.589416 162 5099ft 130kts
13-Mar-18 10:11 36.587457 -121.571797 162 5100ft 130kts
13-Mar-18 10:12 36.561995 -121.543481 85 5089ft 154kts
13-Mar-18 10:13 36.577762 -121.492545 75 5100ft 157kts
13-Mar-18 10:14 36.598994 -121.446614 15 5098ft 165kts
13-Mar-18 10:15 36.615885 -121.476246 217 5112ft 126kts
13-Mar-18 10:16 36.597481 -121.513991 245 5113ft 131kts
13-Mar-18 10:17 36.584982 -121.556609 245 5104ft 127kts
13-Mar-18 10:18 36.572737 -121.598633 246 4457ft 130kts
13-Mar-18 10:19 36.564718 -121.641428 274 3848ft 130kts
13-Mar-18 10:20 36.568558 -121.687008 271 3215ft 133kts
13-Mar-18 10:21 36.572161 -121.729079 271 2416ft 109kts
13-Mar-18 10:22 36.575211 -121.765228 269 1602ft 102kts
13-Mar-18 10:23 36.578004 -121.797921 270 971ft 88kts
13-Mar-18 10:24 36.580984 -121.826508 275 396ft 74kts
13-Mar-18 10:25 36.586655 -121.843555 293 208ft 18kts
13-Mar-18 10:26 36.586982 -121.846812 292 208ft 11kts
13-Mar-18 10:27 36.588306 -121.850696 292 208ft 12kts
13-Mar-18 10:28 36.588463 -121.852300 20 208ft 0kts

Navigation Log

Ident Type
Flight plan parsing failed, navigation log unavailable